Thunderstorms From: 26-05-2018 21:24 Until: 27-05-2018 15:00 warning for: Thunderstorms Level: Yellow info button

Although rather usual in this region, locally or potentially dangerous phenomena are expected. (such as local winds, summer thunderstorms, rising streams or high waves) Be aware and pay attention to the latest weather updates, especially if you carry out activities exposed to weather or close to a stream or shoreline. 


Meteo18 Weather Cam more information Meteo18 Weather Cam


warning for Thunderstorms more information blitzortung!


Rain radar more information rain snow radar


Visit our other weather sites:

Template documentation
and downloads

And another site



Weather Underground History page Text

Daily Summary for June 23, 2016 Units:  Metric    English   Both
« Previous Day
Next Day »
Daily Weekly Monthly Yearly Custom
  High: Low: Average:
Temperature: -17.8 °C -8.1 °C -3.6 °C
Dew Point: -17.8 °C -8.4 °C -7.4 °C
Humidity: Humidity % 37 % 69 %
Wind Speed: 0 km/h 0 km/h 1.4 km/h
Wind Gust: 0 km/h - -
Wind:- - West
Pressure: 0 hPa 34361.1 hPa -
Precipitation: 0 mm    
Historical Graphs
 
 
Tabular Data for June 23, 2016
Time Temperature Dew Point Pressure Wind Wind Speed Wind Gust Humidity Rainfall Rate (Hourly)
-17.8 °C -17.8 °C 0 hPa Calm     Humidity % 0 mm
00:02 -6.3 °C -7 °C 34462.7 hPa Calm     93 % 0 mm
00:07 -6.4 °C -7.1 °C 34452.6 hPa Calm     93 % 0 mm
00:12 -6.4 °C -7.1 °C 34452.6 hPa Calm     93 % 0 mm
00:22 -6.4 °C -7.1 °C 34452.6 hPa Calm     93 % 0 mm
00:27 -6.4 °C -7.1 °C 34452.6 hPa Calm     93 % 0 mm
00:32 -6.4 °C -7.1 °C 34452.6 hPa Calm     93 % 0 mm
00:42 -6.4 °C -7.2 °C 34452.6 hPa Calm   2.6 km/h 92 % 0 mm
00:47 -6.5 °C -7.2 °C 34452.6 hPa Calm   2.6 km/h 92 % 0 mm
00:52 -6.5 °C -7.2 °C 34452.6 hPa Calm     92 % 0 mm
00:57 -6.5 °C -7.2 °C 34452.6 hPa Calm     92 % 0 mm
01:02 -6.5 °C -7.2 °C 34452.6 hPa Calm     92 % 0 mm
01:12 -6.4 °C -7.2 °C 34452.6 hPa Calm   2.6 km/h 92 % 0 mm
01:17 -6.4 °C -7.1 °C 34452.6 hPa Calm   2.6 km/h 92 % 0 mm
01:22 -6.3 °C -7.2 °C 34452.6 hPa Calm   2.6 km/h 91 % 0 mm
01:27 -6.3 °C -7.2 °C 34442.4 hPa Calm   2.6 km/h 91 % 0 mm
01:32 -6.4 °C -7.2 °C 34442.4 hPa Calm   2.6 km/h 91 % 0 mm
01:42 -6.4 °C -7.2 °C 34442.4 hPa Calm     92 % 0 mm
01:47 -6.5 °C -7.2 °C 34442.4 hPa Calm     92 % 0 mm
01:52 -6.5 °C -7.2 °C 34442.4 hPa Calm   2.6 km/h 93 % 0 mm
01:57 -6.5 °C -7.2 °C 34428.8 hPa Calm   2.6 km/h 92 % 0 mm
02:02 -6.5 °C -7.2 °C 34428.8 hPa Calm   2.6 km/h 92 % 0 mm
02:07 -6.5 °C -7.2 °C 34442.4 hPa Calm   2.6 km/h 92 % 0 mm
02:12 -6.6 °C -7.3 °C 34428.8 hPa Calm     92 % 0 mm
02:17 -6.7 °C -7.4 °C 34428.8 hPa Calm     92 % 0 mm
02:22 -6.8 °C -7.5 °C 34428.8 hPa Calm     92 % 0 mm
02:32 -6.8 °C -7.4 °C 34428.8 hPa Calm     94 % 0 mm
02:37 -6.8 °C -7.5 °C 34428.8 hPa Calm   2.6 km/h 93 % 0 mm
02:42 -6.8 °C -7.4 °C 34428.8 hPa Calm   2.6 km/h 94 % 0 mm
02:47 -6.9 °C -7.6 °C 34418.7 hPa Calm   2.6 km/h 93 % 0 mm
02:52 -6.9 °C -7.4 °C 34418.7 hPa Calm   2.6 km/h 94 % 0 mm
02:57 -6.9 °C -7.5 °C 34418.7 hPa Calm     94 % 0 mm
03:02 -7 °C -7.6 °C 34418.7 hPa Calm     94 % 0 mm
03:12 -7.1 °C -7.6 °C 34405.1 hPa Calm     94 % 0 mm
03:17 -7.1 °C -7.6 °C 34405.1 hPa Calm     94 % 0 mm
03:22 -7.1 °C -7.7 °C 34405.1 hPa Calm     94 % 0 mm
03:32 -7.2 °C -7.7 °C 34405.1 hPa Calm     94 % 0 mm
03:37 -7.2 °C -7.6 °C 34405.1 hPa Calm     95 % 0 mm
03:42 -7.3 °C -7.8 °C 34405.1 hPa Calm     94 % 0 mm
03:47 -7.3 °C -7.9 °C 34405.1 hPa Calm     94 % 0 mm
03:52 -7.3 °C -7.8 °C 34405.1 hPa Calm     95 % 0 mm
03:57 -7.3 °C -7.8 °C 34405.1 hPa Calm     95 % 0 mm
04:02 -7.4 °C -7.8 °C 34405.1 hPa Calm     95 % 0 mm
04:07 -7.4 °C -7.8 °C 34405.1 hPa Calm     95 % 0 mm
04:12 -7.4 °C -7.8 °C 34405.1 hPa Calm     95 % 0 mm
04:17 -7.4 °C -7.8 °C 34405.1 hPa Calm     95 % 0 mm
04:22 -7.4 °C -7.9 °C 34405.1 hPa Calm     95 % 0 mm
04:32 -7.5 °C -7.9 °C 34405.1 hPa Calm     96 % 0 mm
04:37 -7.4 °C -7.8 °C 34405.1 hPa Calm     96 % 0 mm
04:42 -7.5 °C -7.9 °C 34405.1 hPa Calm     96 % 0 mm
04:47 -7.6 °C -7.9 °C 34405.1 hPa Calm     96 % 0 mm
04:52 -7.6 °C -8 °C 34418.7 hPa Calm     95 % 0 mm
04:57 -7.6 °C -7.9 °C 34405.1 hPa Calm     96 % 0 mm
05:02 -7.6 °C -7.9 °C 34405.1 hPa Calm     96 % 0 mm
05:12 -7.6 °C -7.9 °C 34405.1 hPa Calm     96 % 0 mm
05:22 -7.6 °C -7.9 °C 34405.1 hPa Calm     96 % 0 mm
05:32 -7.7 °C -8 °C 34418.7 hPa Calm     96 % 0 mm
05:42 -7.7 °C -8.1 °C 34418.7 hPa Calm     96 % 0 mm
05:52 -7.8 °C -8.2 °C 34418.7 hPa Calm     96 % 0 mm
06:02 -7.8 °C -8.2 °C 34418.7 hPa Calm     96 % 0 mm
06:12 -7.9 °C -8.3 °C 34418.7 hPa Calm     96 % 0 mm
06:17 -7.9 °C -8.2 °C 34418.7 hPa Calm     97 % 0 mm
06:22 -7.9 °C -8.2 °C 34428.8 hPa Calm     97 % 0 mm
06:32 -8 °C -8.3 °C 34428.8 hPa Calm     96 % 0 mm
06:42 -8.1 °C -8.3 °C 34428.8 hPa Calm     97 % 0 mm
06:47 -8 °C -8.3 °C 34428.8 hPa Calm     97 % 0 mm
06:52 -7.9 °C -8.2 °C 34428.8 hPa Calm     97 % 0 mm
07:12 -7.6 °C -7.9 °C 34442.4 hPa Calm     97 % 0 mm
07:17 -7.6 °C -7.9 °C 34442.4 hPa Calm     97 % 0 mm
07:22 -7.6 °C -7.9 °C 34442.4 hPa Calm     97 % 0 mm
07:32 -7.6 °C -7.9 °C 34452.6 hPa Calm     97 % 0 mm
07:42 -7.5 °C -7.7 °C 34452.6 hPa Calm     98 % 0 mm
07:52 -7.2 °C -7.3 °C 34452.6 hPa Calm     98 % 0 mm
08:02 -7.1 °C -7.3 °C 34452.6 hPa Calm     98 % 0 mm
08:12 -6.9 °C -7.1 °C 34462.7 hPa Calm     98 % 0 mm
08:22 -6.6 °C -7.2 °C 34462.7 hPa Calm     93 % 0 mm
08:32 -6.2 °C -7.1 °C 34462.7 hPa Calm     90 % 0 mm
08:37 -6 °C -7.1 °C 34462.7 hPa Calm   2.6 km/h 89 % 0 mm
08:42 -6 °C -7.2 °C 34452.6 hPa Calm   2.6 km/h 88 % 0 mm
08:47 -5.8 °C -7.1 °C 34452.6 hPa Calm   2.6 km/h 87 % 0 mm
08:57 -5.4 °C -6.8 °C 34452.6 hPa Calm   2.6 km/h 86 % 0 mm
09:02 -5.1 °C -6.7 °C 34452.6 hPa Calm   2.6 km/h 84 % 0 mm
09:07 -4.9 °C -6.9 °C 34462.7 hPa Calm   2.6 km/h 80 % 0 mm
09:22 -4.3 °C -6.6 °C 34462.7 hPa Calm   5.1 km/h 78 % 0 mm
09:32 -3.8 °C -6.3 °C 34462.7 hPa Calm   7.7 km/h 76 % 0 mm
09:42 -3.4 °C -6.7 °C 34462.7 hPa Calm   7.7 km/h 70 % 0 mm
09:52 -3.2 °C -6.3 °C 34462.7 hPa Calm   7.7 km/h 71 % 0 mm
10:12 -2.4 °C -6.3 °C 34462.7 hPa Calm   10.3 km/h 66 % 0 mm
10:17 -2.4 °C -6.8 °C 34462.7 hPa Calm   5.1 km/h 62 % 0 mm
10:22 -2.4 °C -6.5 °C 34462.7 hPa Calm   7.7 km/h 64 % 0 mm
10:32 -2.1 °C -7 °C 34452.6 hPa Calm   10.3 km/h 59 % 0 mm
10:37 -2 °C -6.7 °C 34452.6 hPa Calm   10.3 km/h 60 % 0 mm
10:42 -1.8 °C -6.4 °C 34452.6 hPa Calm   5.1 km/h 61 % 0 mm
10:47 -1.8 °C -6.2 °C 34442.4 hPa WSW 2.6 km/h 5.1 km/h 62 % 0 mm
10:52 -1.7 °C -6.6 °C 34442.4 hPa NNW 5.1 km/h 5.1 km/h 59 % 0 mm
10:57 -1.8 °C -7 °C 34442.4 hPa Calm   10.3 km/h 57 % 0 mm
11:02 -1.6 °C -5.9 °C 34442.4 hPa Calm   10.3 km/h 63 % 0 mm
11:12 -1.4 °C -6.9 °C 34442.4 hPa Calm   7.7 km/h 55 % 0 mm
11:17 -1.4 °C -7.2 °C 34442.4 hPa Calm   7.7 km/h 54 % 0 mm
11:22 -1.3 °C -6.1 °C 34442.4 hPa Calm   7.7 km/h 60 % 0 mm
11:32 -1.2 °C -7.1 °C 34442.4 hPa NNW 5.1 km/h 7.7 km/h 53 % 0 mm
11:37 -1.3 °C -7.2 °C 34442.4 hPa NW 2.6 km/h 12.9 km/h 53 % 0 mm
11:42 -1.3 °C -7.3 °C 34442.4 hPa Calm   12.9 km/h 52 % 0 mm
11:52 -1.1 °C -7.3 °C 34428.8 hPa WNW 2.6 km/h 10.3 km/h 51 % 0 mm
11:57 -1.2 °C -7.2 °C 34428.8 hPa Calm   20.8 km/h 52 % 0 mm
12:02 -1 °C -7.1 °C 34428.8 hPa Calm   20.8 km/h 52 % 0 mm
12:12 -0.9 °C -7.6 °C 34428.8 hPa WNW 7.7 km/h 15.6 km/h 49 % 0 mm
12:17 -0.9 °C -7.4 °C 34428.8 hPa Calm   15.6 km/h 50 % 0 mm
12:22 -0.8 °C -7.6 °C 34428.8 hPa NW 5.1 km/h 15.6 km/h 48 % 0 mm
12:27 -0.7 °C -7.6 °C 34428.8 hPa NW 2.6 km/h 15.6 km/h 48 % 0 mm
12:32 -0.8 °C -7.8 °C 34428.8 hPa NW 7.7 km/h 12.9 km/h 47 % 0 mm
12:42 -0.7 °C -7.3 °C 34428.8 hPa Calm   15.6 km/h 49 % 0 mm
12:52 -0.7 °C -7.3 °C 34418.7 hPa NW 2.6 km/h 15.6 km/h 49 % 0 mm
12:57 -0.5 °C -7.5 °C 34418.7 hPa West 7.7 km/h 15.6 km/h 47 % 0 mm
13:02 -0.3 °C -7.6 °C 34418.7 hPa West 2.6 km/h 15.6 km/h 46 % 0 mm
13:17 -0.3 °C -7.6 °C 34418.7 hPa Calm   15.6 km/h 46 % 0 mm
13:22 -0.2 °C -7.7 °C 34418.7 hPa WNW 2.6 km/h 15.6 km/h 45 % 0 mm
13:27 -0.2 °C -7.1 °C 34405.1 hPa NW 5.1 km/h 20.8 km/h 48 % 0 mm
13:32 -0.1 °C -7.6 °C 34405.1 hPa North 5.1 km/h 20.8 km/h 45 % 0 mm
13:37 -0.1 °C -8.1 °C 34405.1 hPa NW 5.1 km/h 20.8 km/h 42 % 0 mm
13:42 -0.1 °C -8.2 °C 34405.1 hPa NNW 12.9 km/h 18.2 km/h 42 % 0 mm
13:47 -0.1 °C -7.3 °C 34405.1 hPa WNW 2.6 km/h 18.2 km/h 46 % 0 mm
13:52 0.1 °C -6.9 °C 34405.1 hPa Calm   18.2 km/h 47 % 0 mm
13:57 0.2 °C -7.3 °C 34405.1 hPa NNW 10.3 km/h 23.3 km/h 45 % 0 mm
14:02 0.2 °C -7.7 °C 34405.1 hPa Calm   23.3 km/h 43 % 0 mm
14:07 0.2 °C -7.1 °C 34405.1 hPa WNW 2.6 km/h 23.3 km/h 46 % 0 mm
14:12 0.3 °C -7.6 °C 34395 hPa NNW 7.7 km/h 18.2 km/h 43 % 0 mm
14:17 0.2 °C -7.3 °C 34395 hPa WSW 2.6 km/h 20.8 km/h 45 % 0 mm
14:22 0.4 °C -7.9 °C 34395 hPa West 7.7 km/h 20.8 km/h 41 % 0 mm
14:32 0.4 °C -7.1 °C 34395 hPa NW 10.3 km/h 20.8 km/h 45 % 0 mm
14:42 0.5 °C -6.8 °C 34395 hPa Calm   18.2 km/h 46 % 0 mm
14:52 0.7 °C -7.3 °C 34395 hPa West 2.6 km/h 23.3 km/h 43 % 0 mm
15:02 0.7 °C -7.7 °C 34384.8 hPa NNE 12.9 km/h 15.6 km/h 41 % 0 mm
15:07 0.5 °C -6.6 °C 34384.8 hPa NNW 20.8 km/h 20.8 km/h 47 % 0 mm
15:12 0.3 °C -7.3 °C 34384.8 hPa Calm   25.9 km/h 44 % 0 mm
15:17 0.5 °C -7.2 °C 34384.8 hPa Calm   25.9 km/h 44 % 0 mm
15:22 0.7 °C -7.2 °C 34384.8 hPa Calm   25.9 km/h 43 % 0 mm
15:27 0.6 °C -7.6 °C 34384.8 hPa North 7.7 km/h 15.6 km/h 42 % 0 mm
15:32 0.6 °C -6.9 °C 34384.8 hPa North 5.1 km/h 15.6 km/h 45 % 0 mm
15:37 0.6 °C -6.7 °C 34384.8 hPa NW 2.6 km/h 15.6 km/h 46 % 0 mm
15:42 0.7 °C -7.6 °C 34384.8 hPa Calm   15.6 km/h 41 % 0 mm
15:52 0.9 °C -7 °C 34384.8 hPa West 2.6 km/h 12.9 km/h 43 % 0 mm
15:57 0.9 °C -8.2 °C 34384.8 hPa West 2.6 km/h 15.6 km/h 38 % 0 mm
16:02 0.9 °C -8.2 °C 34384.8 hPa WNW 7.7 km/h 15.6 km/h 38 % 0 mm
16:12 0.9 °C -8.4 °C 34371.3 hPa WSW 2.6 km/h 20.8 km/h 37 % 0 mm
16:17 0.8 °C -7.1 °C 34371.3 hPa WSW 2.6 km/h 20.8 km/h 43 % 0 mm
16:22 0.8 °C -7.3 °C 34384.8 hPa WSW 5.1 km/h 20.8 km/h 42 % 0 mm
16:32 0.9 °C -7.7 °C 34371.3 hPa WNW 2.6 km/h 20.8 km/h 40 % 0 mm
16:37 0.9 °C -7.9 °C 34371.3 hPa SW 5.1 km/h 12.9 km/h 39 % 0 mm
16:47 0.9 °C -7.7 °C 34371.3 hPa West 2.6 km/h 15.6 km/h 40 % 0 mm
16:52 0.9 °C -8.1 °C 34371.3 hPa SW 7.7 km/h 15.6 km/h 38 % 0 mm
16:57 0.9 °C -8.1 °C 34371.3 hPa West 2.6 km/h 15.6 km/h 38 % 0 mm
17:02 0.9 °C -7.7 °C 34371.3 hPa West 2.6 km/h 15.6 km/h 40 % 0 mm
17:07 0.9 °C -7.4 °C 34361.1 hPa Calm   20.8 km/h 41 % 0 mm
17:12 0.9 °C -7.9 °C 34371.3 hPa West 5.1 km/h 15.6 km/h 39 % 0 mm
17:17 0.9 °C -7.3 °C 34361.1 hPa WSW 5.1 km/h 15.6 km/h 42 % 0 mm
17:22 0.9 °C -7.5 °C 34361.1 hPa Calm   15.6 km/h 41 % 0 mm
17:32 0.9 °C -7.5 °C 34361.1 hPa SW 2.6 km/h 15.6 km/h 41 % 0 mm
17:37 0.9 °C -7.3 °C 34361.1 hPa West 2.6 km/h 15.6 km/h 42 % 0 mm
17:42 0.8 °C -7.3 °C 34361.1 hPa West 5.1 km/h 18.2 km/h 42 % 0 mm
17:47 0.8 °C -7.6 °C 34361.1 hPa West 2.6 km/h 18.2 km/h 41 % 0 mm
17:52 0.7 °C -7.8 °C 34361.1 hPa SSW 7.7 km/h 18.2 km/h 40 % 0 mm
17:57 0.7 °C -7.7 °C 34361.1 hPa SW 5.1 km/h 15.6 km/h 41 % 0 mm
18:02 0.7 °C -7.1 °C 34361.1 hPa WSW 10.3 km/h 15.6 km/h 44 % 0 mm
18:17 0.7 °C -7.3 °C 34361.1 hPa WSW 7.7 km/h 12.9 km/h 43 % 0 mm
18:22 0.6 °C -7.1 °C 34361.1 hPa WSW 5.1 km/h 10.3 km/h 44 % 0 mm
18:27 0.5 °C -7.8 °C 34361.1 hPa WSW 5.1 km/h 10.3 km/h 41 % 0 mm
18:32 0.4 °C -7.7 °C 34361.1 hPa WSW 5.1 km/h 15.6 km/h 42 % 0 mm
18:42 0.3 °C -7.6 °C 34361.1 hPa Calm   12.9 km/h 43 % 0 mm
18:47 0.3 °C -7.3 °C 34361.1 hPa SW 2.6 km/h 12.9 km/h 44 % 0 mm
18:52 0.3 °C -7.3 °C 34361.1 hPa SW 5.1 km/h 10.3 km/h 44 % 0 mm
18:57 0.2 °C -7.5 °C 34361.1 hPa West 2.6 km/h 10.3 km/h 44 % 0 mm
19:02 0.1 °C -7.4 °C 34361.1 hPa Calm   10.3 km/h 45 % 0 mm
19:12 -0.2 °C -7.3 °C 34361.1 hPa Calm   18.2 km/h 47 % 0 mm
19:17 -0.3 °C -7.6 °C 34361.1 hPa WSW 2.6 km/h 7.7 km/h 46 % 0 mm
19:22 -0.4 °C -7.4 °C 34361.1 hPa Calm   12.9 km/h 47 % 0 mm
19:27 -0.5 °C -7.2 °C 34361.1 hPa Calm   12.9 km/h 49 % 0 mm
19:32 -0.6 °C -7.3 °C 34361.1 hPa Calm   12.9 km/h 49 % 0 mm
19:37 -0.7 °C -7.1 °C 34361.1 hPa Calm   5.1 km/h 50 % 0 mm
19:42 -0.7 °C -6.9 °C 34361.1 hPa Calm   5.1 km/h 51 % 0 mm
19:52 -0.9 °C -6.8 °C 34361.1 hPa Calm   5.1 km/h 53 % 0 mm
19:57 -1 °C -6.7 °C 34361.1 hPa WSW 2.6 km/h 5.1 km/h 54 % 0 mm
20:02 -1.1 °C -6.9 °C 34371.3 hPa Calm   5.1 km/h 53 % 0 mm
20:12 -1.2 °C -6.9 °C 34371.3 hPa Calm   7.7 km/h 54 % 0 mm
20:17 -1.3 °C -6.9 °C 34371.3 hPa Calm   5.1 km/h 55 % 0 mm
20:22 -1.5 °C -7.1 °C 34371.3 hPa Calm   5.1 km/h 55 % 0 mm
20:32 -1.8 °C -6.7 °C 34371.3 hPa Calm   2.6 km/h 59 % 0 mm
20:37 -2 °C -6.6 °C 34384.8 hPa Calm     61 % 0 mm
20:42 -2.2 °C -6.4 °C 34384.8 hPa Calm     63 % 0 mm
20:47 -2.4 °C -6.8 °C 34384.8 hPa Calm     62 % 0 mm
20:52 -2.6 °C -6.6 °C 34384.8 hPa Calm     65 % 0 mm
20:57 -2.7 °C -6.7 °C 34384.8 hPa Calm     65 % 0 mm
21:02 -2.9 °C -6.8 °C 34384.8 hPa Calm     66 % 0 mm
21:07 -3.1 °C -6.7 °C 34384.8 hPa Calm     68 % 0 mm
21:12 -3.3 °C -6.6 °C 34384.8 hPa Calm     70 % 0 mm
21:17 -3.7 °C -6.6 °C 34384.8 hPa Calm     73 % 0 mm
21:22 -3.9 °C -6.4 °C 34384.8 hPa Calm     76 % 0 mm
21:32 -4.4 °C -6.8 °C 34384.8 hPa Calm     77 % 0 mm
21:37 -4.6 °C -7 °C 34384.8 hPa Calm     77 % 0 mm
21:42 -4.7 °C -7.2 °C 34395 hPa Calm     76 % 0 mm
21:52 -4.7 °C -7.3 °C 34395 hPa Calm     75 % 0 mm
21:57 -4.8 °C -7.4 °C 34395 hPa Calm     75 % 0 mm
22:02 -4.8 °C -7.3 °C 34395 hPa Calm     76 % 0 mm
22:07 -4.9 °C -7.4 °C 34395 hPa Calm     76 % 0 mm
22:12 -5.1 °C -7.4 °C 34395 hPa Calm     77 % 0 mm
22:22 -5.2 °C -7.2 °C 34405.1 hPa Calm     80 % 0 mm
22:32 -5.4 °C -7.5 °C 34405.1 hPa Calm     79 % 0 mm
22:37 -5.4 °C -7.4 °C 34405.1 hPa Calm     80 % 0 mm
22:42 -5.5 °C -7.6 °C 34405.1 hPa Calm     79 % 0 mm
22:47 -5.6 °C -7.4 °C 34405.1 hPa Calm     82 % 0 mm
22:52 -5.7 °C -7.3 °C 34418.7 hPa Calm     83 % 0 mm
22:57 -5.8 °C -7.4 °C 34418.7 hPa Calm     83 % 0 mm
23:02 -5.8 °C -7.3 °C 34418.7 hPa Calm     85 % 0 mm
23:07 -5.9 °C -7.3 °C 34418.7 hPa Calm     85 % 0 mm
23:12 -5.9 °C -7.3 °C 34418.7 hPa Calm     86 % 0 mm
23:17 -6 °C -7.3 °C 34418.7 hPa Calm     86 % 0 mm
23:22 -6.1 °C -7.5 °C 34418.7 hPa Calm     85 % 0 mm
23:27 -6.1 °C -7.5 °C 34418.7 hPa Calm     85 % 0 mm
23:32 -6.1 °C -7.5 °C 34418.7 hPa Calm     85 % 0 mm
23:42 -6 °C -7.6 °C 34418.7 hPa Calm     84 % 0 mm
23:47 -5.9 °C -7.4 °C 34418.7 hPa Calm     84 % 0 mm
23:52 -5.8 °C -7.3 °C 34418.7 hPa Calm     84 % 0 mm
Meteo18
Compliments of Weather Underground - 4 mb

Script developed by  Jim McMurry - jmcmurry@mwt.net Adapted for the template by  Wim van der Kuil - Leuven-Template.eu

You find our weather info also at:

European Weather Network

Weather Underground

Equipment we use:

Weather-station
Davis Vue

Weather-program
Meteobridge

Weather-server
Raspberry PI 2 B+

Provider
1 and 1

Davis Vue

Meteobridge

Raspberry PI 2 B+

1 and 1